createdAt,value
2018-11-13T00:02:04.070Z,14.57
2018-11-13T00:04:32.603Z,21.60
2018-11-13T00:07:01.082Z,11.77
2018-11-13T00:09:29.614Z,13.30
2018-11-13T00:11:58.150Z,15.23
2018-11-13T00:14:26.532Z,16.07
2018-11-13T00:16:55.055Z,14.70
2018-11-13T00:19:23.544Z,12.03
2018-11-13T00:21:51.996Z,13.33
2018-11-13T00:24:20.536Z,15.87
2018-11-13T00:26:49.115Z,16.33
2018-11-13T00:29:17.651Z,14.50
2018-11-13T00:31:46.161Z,15.67
2018-11-13T00:34:14.625Z,15.87
2018-11-13T00:36:42.988Z,15.50
2018-11-13T00:39:13.133Z,14.07
2018-11-13T00:41:42.066Z,11.97
2018-11-13T00:44:11.107Z,13.83
2018-11-13T00:46:40.304Z,12.13
2018-11-13T00:49:08.837Z,13.97
2018-11-13T00:51:38.292Z,13.33
2018-11-13T00:54:06.761Z,13.23
2018-11-13T00:56:35.205Z,13.40
2018-11-13T00:59:03.859Z,14.00
2018-11-13T01:01:32.417Z,15.43
2018-11-13T01:04:00.883Z,17.53
2018-11-13T01:06:29.332Z,14.87
2018-11-13T01:08:58.445Z,13.50
2018-11-13T01:11:26.847Z,21.30
2018-11-13T01:13:55.251Z,17.97
2018-11-13T01:16:23.714Z,15.73
2018-11-13T01:18:52.305Z,18.47
2018-11-13T01:21:20.950Z,18.60
2018-11-13T01:23:49.648Z,19.57
2018-11-13T01:26:18.016Z,20.67
2018-11-13T01:28:46.533Z,18.40
2018-11-13T01:31:15.026Z,25.10
2018-11-13T01:33:43.509Z,20.73
2018-11-13T01:36:12.201Z,24.87
2018-11-13T01:38:40.776Z,24.50
2018-11-13T01:41:09.198Z,18.53
2018-11-13T01:43:37.679Z,17.93
2018-11-13T01:46:06.307Z,18.47
2018-11-13T01:48:34.955Z,22.37
2018-11-13T01:51:04.025Z,20.90
2018-11-13T01:53:32.527Z,21.47
2018-11-13T01:56:00.997Z,20.93
2018-11-13T01:58:29.445Z,24.80
2018-11-13T02:00:58.157Z,20.60
2018-11-13T02:03:26.960Z,23.67
2018-11-13T02:05:55.416Z,24.13
2018-11-13T02:08:24.269Z,23.57
2018-11-13T02:10:52.999Z,22.97
2018-11-13T02:13:21.694Z,21.33
2018-11-13T02:15:50.424Z,20.80
2018-11-13T02:18:18.870Z,21.33
2018-11-13T02:20:47.550Z,23.87
2018-11-13T02:23:16.224Z,25.03
2018-11-13T02:25:44.889Z,30.47
2018-11-13T02:28:13.404Z,25.90
2018-11-13T02:30:42.074Z,24.80
2018-11-13T02:33:10.538Z,30.93
2018-11-13T02:35:39.001Z,26.40
2018-11-13T02:38:07.461Z,27.73
2018-11-13T02:40:35.962Z,25.23
2018-11-13T02:43:04.484Z,26.57
2018-11-13T02:45:33.145Z,26.60
2018-11-13T02:48:01.633Z,29.00
2018-11-13T02:50:30.270Z,26.73
2018-11-13T02:52:58.972Z,32.13
2018-11-13T02:55:27.542Z,29.53
2018-11-13T02:57:55.955Z,27.60
2018-11-13T03:00:24.394Z,28.97
2018-11-13T03:02:52.777Z,32.80
2018-11-13T03:05:22.234Z,33.63
2018-11-13T03:07:51.286Z,28.53
2018-11-13T03:10:20.644Z,27.20
2018-11-13T03:12:49.435Z,27.70
2018-11-13T03:15:19.167Z,24.90
2018-11-13T03:17:47.906Z,34.23
2018-11-13T03:20:17.444Z,35.67
2018-11-13T03:22:46.184Z,32.20
2018-11-13T03:25:16.718Z,36.20
2018-11-13T03:27:45.132Z,30.23
2018-11-13T03:30:17.110Z,27.27
2018-11-13T03:32:45.659Z,27.23
2018-11-13T03:35:14.393Z,27.93
2018-11-13T03:37:42.999Z,28.57
2018-11-13T03:40:12.604Z,30.17
2018-11-13T03:42:41.944Z,31.77
2018-11-13T03:45:11.515Z,28.90
2018-11-13T03:47:40.218Z,31.50
2018-11-13T03:50:11.066Z,39.20
2018-11-13T03:52:39.526Z,36.13
2018-11-13T03:55:08.821Z,31.07
2018-11-13T03:57:37.496Z,33.10
2018-11-13T04:00:08.113Z,39.83
2018-11-13T04:02:36.752Z,32.33
2018-11-13T04:05:06.850Z,36.47
2018-11-13T04:07:39.625Z,28.23
2018-11-13T04:10:08.820Z,34.50
2018-11-13T04:12:37.490Z,36.77
2018-11-13T04:15:06.561Z,33.37
2018-11-13T04:17:35.022Z,34.53
2018-11-13T04:20:03.666Z,38.03
2018-11-13T04:22:32.117Z,33.73
2018-11-13T04:25:00.626Z,33.50
2018-11-13T04:27:29.207Z,30.93
2018-11-13T04:29:57.813Z,30.37
2018-11-13T04:32:26.208Z,33.63
2018-11-13T04:34:54.750Z,33.37
2018-11-13T04:37:23.365Z,30.53
2018-11-13T04:39:51.804Z,36.70
2018-11-13T04:42:20.421Z,29.97
2018-11-13T04:44:49.069Z,28.63
2018-11-13T04:47:17.448Z,25.23
2018-11-13T04:49:45.919Z,30.43
2018-11-13T04:52:14.336Z,24.27
2018-11-13T04:54:42.748Z,31.57
2018-11-13T04:57:11.201Z,25.97
2018-11-13T04:59:39.621Z,27.43
2018-11-13T05:02:08.761Z,29.00
2018-11-13T05:04:37.205Z,32.67
2018-11-13T05:07:06.652Z,25.83
2018-11-13T05:09:35.069Z,31.30
2018-11-13T05:12:03.800Z,29.53
2018-11-13T05:14:32.272Z,31.37
2018-11-13T05:17:00.834Z,31.83
2018-11-13T05:19:29.688Z,27.13
2018-11-13T05:21:58.736Z,29.23
2018-11-13T05:24:27.212Z,27.77
2018-11-13T05:26:56.094Z,28.07
2018-11-13T05:29:24.500Z,26.40
2018-11-13T05:31:52.894Z,30.63
2018-11-13T05:34:21.680Z,26.67
2018-11-13T05:36:50.110Z,24.37
2018-11-13T05:39:18.740Z,24.63
2018-11-13T05:41:47.307Z,24.60
2018-11-13T05:44:16.147Z,29.27
2018-11-13T05:46:44.613Z,26.97
2018-11-13T05:49:13.009Z,29.83
2018-11-13T05:51:41.874Z,25.03
2018-11-13T05:54:10.292Z,21.20
2018-11-13T05:57:01.957Z,21.70
2018-11-13T05:59:34.606Z,25.83
2018-11-13T06:02:07.207Z,28.43
2018-11-13T06:04:36.536Z,25.17
2018-11-13T06:07:05.613Z,28.03
2018-11-13T06:09:34.020Z,25.70
2018-11-13T06:12:02.682Z,25.97
2018-11-13T06:14:31.049Z,23.07
2018-11-13T06:16:59.736Z,22.43
2018-11-13T06:19:28.435Z,26.27
2018-11-13T06:21:56.935Z,24.83
2018-11-13T06:24:25.313Z,25.97
2018-11-13T06:26:53.680Z,27.03
2018-11-13T06:29:22.169Z,26.33
2018-11-13T06:31:50.657Z,30.40
2018-11-13T06:34:19.298Z,23.30
2018-11-13T06:36:47.747Z,22.27
2018-11-13T06:39:16.436Z,27.33
2018-11-13T06:41:45.145Z,24.57
2018-11-13T06:44:13.565Z,23.53
2018-11-13T06:46:42.310Z,23.60
2018-11-13T06:49:11.093Z,21.50
2018-11-13T06:51:40.174Z,19.30
2018-11-13T06:54:20.139Z,25.33
2018-11-13T06:56:48.613Z,22.40
2018-11-13T06:59:17.126Z,24.30
2018-11-13T07:01:45.747Z,21.57
2018-11-13T07:04:14.124Z,25.23
2018-11-13T07:06:42.502Z,23.67
2018-11-13T07:09:11.135Z,23.93
2018-11-13T07:11:39.613Z,24.23
2018-11-13T07:14:08.369Z,22.00
2018-11-13T07:16:36.816Z,21.43
2018-11-13T07:19:05.870Z,24.80
2018-11-13T07:21:34.517Z,21.67
2018-11-13T07:24:03.006Z,20.68
2018-11-13T07:26:32.058Z,26.33
2018-11-13T07:29:01.638Z,21.10
2018-11-13T07:31:30.201Z,21.13
2018-11-13T07:33:58.745Z,17.53
2018-11-13T07:36:27.291Z,14.20
2018-11-13T07:38:56.869Z,20.70
2018-11-13T07:41:25.853Z,13.80
2018-11-13T07:43:54.216Z,13.23
2018-11-13T07:46:22.782Z,11.97
2018-11-13T07:48:51.236Z,12.73
2018-11-13T07:51:19.929Z,9.67
2018-11-13T07:53:48.781Z,12.83
2018-11-13T07:56:17.408Z,10.20
2018-11-13T07:58:45.796Z,8.00
2018-11-13T08:01:14.280Z,7.17
2018-11-13T08:03:42.652Z,5.87
2018-11-13T08:06:11.283Z,4.30
2018-11-13T08:08:39.692Z,3.23
2018-11-13T08:11:08.125Z,7.10
2018-11-13T08:13:36.675Z,2.43
2018-11-13T08:16:05.095Z,4.00
2018-11-13T08:18:33.561Z,5.17
2018-11-13T08:21:02.038Z,5.03
2018-11-13T08:23:30.493Z,5.90
2018-11-13T08:25:59.616Z,5.47
2018-11-13T08:28:28.629Z,5.03
2018-11-13T08:30:57.785Z,5.83
2018-11-13T08:33:27.012Z,5.00
2018-11-13T08:35:55.510Z,6.43
2018-11-13T08:38:24.088Z,1.33
2018-11-13T08:40:53.130Z,1.90
2018-11-13T08:43:21.630Z,5.33
2018-11-13T08:45:50.070Z,4.33
2018-11-13T08:48:19.148Z,9.27
2018-11-13T08:50:48.034Z,2.30
2018-11-13T08:53:16.549Z,6.20
2018-11-13T08:55:45.030Z,4.30
2018-11-13T08:58:13.802Z,4.73
2018-11-13T09:00:42.385Z,4.07
2018-11-13T09:03:10.890Z,3.07
2018-11-13T09:05:39.350Z,10.83
2018-11-13T09:08:07.753Z,8.83
2018-11-13T09:10:36.486Z,3.10
2018-11-13T09:13:05.683Z,4.60
2018-11-13T09:15:34.143Z,7.17
2018-11-13T09:18:02.670Z,3.70
2018-11-13T09:20:31.113Z,2.90
2018-11-13T09:22:59.604Z,4.27
2018-11-13T09:25:28.326Z,4.73
2018-11-13T09:27:56.905Z,7.50
2018-11-13T09:30:26.138Z,6.37
2018-11-13T09:32:54.362Z,5.80
2018-11-13T09:35:23.066Z,2.60
2018-11-13T09:37:51.809Z,3.30
2018-11-13T09:40:21.030Z,6.83
2018-11-13T09:42:51.281Z,8.77
2018-11-13T09:45:19.845Z,3.43
2018-11-13T09:47:48.428Z,3.63
2018-11-13T09:50:18.093Z,6.30
2018-11-13T09:52:48.257Z,3.67
2018-11-13T09:55:17.939Z,2.77
2018-11-13T09:57:46.649Z,3.10
2018-11-13T10:00:17.491Z,2.70
2018-11-13T10:02:48.976Z,2.93
2018-11-13T10:05:18.027Z,5.87
2018-11-13T10:07:47.000Z,1.77
2018-11-13T10:10:15.430Z,6.30
2018-11-13T10:12:43.773Z,6.03
2018-11-13T10:15:14.927Z,4.60
2018-11-13T10:17:43.811Z,3.03
2018-11-13T10:20:13.516Z,4.43
2018-11-13T10:22:43.157Z,3.03
2018-11-13T10:25:12.318Z,3.37
2018-11-13T10:27:41.951Z,9.13
2018-11-13T10:30:13.086Z,6.17
2018-11-13T10:32:42.196Z,6.20
2018-11-13T10:35:11.961Z,8.20
2018-11-13T10:37:40.839Z,9.20
2018-11-13T10:40:11.772Z,5.70
2018-11-13T10:42:40.518Z,10.37
2018-11-13T10:45:11.946Z,6.30
2018-11-13T10:47:41.025Z,13.33
2018-11-13T10:50:26.111Z,9.67
2018-11-13T10:52:54.830Z,10.43
2018-11-13T10:55:23.570Z,6.90
2018-11-13T10:57:52.042Z,14.10
2018-11-13T11:00:25.877Z,12.00
2018-11-13T11:02:59.989Z,8.37
2018-11-13T11:05:29.038Z,7.70
2018-11-13T11:07:57.910Z,8.93
2018-11-13T11:10:26.728Z,5.27
2018-11-13T11:12:55.893Z,10.03
2018-11-13T11:15:24.480Z,11.20
2018-11-13T11:17:52.956Z,19.57
2018-11-13T11:20:21.654Z,11.10
2018-11-13T11:22:50.289Z,16.43
2018-11-13T11:25:18.741Z,9.03
2018-11-13T11:27:47.210Z,8.73
2018-11-13T11:30:16.266Z,7.83
2018-11-13T11:32:44.968Z,9.03
2018-11-13T11:35:13.518Z,14.40
2018-11-13T11:37:42.845Z,10.00
2018-11-13T11:40:12.681Z,6.50
2018-11-13T11:42:41.159Z,14.70
2018-11-13T11:45:11.297Z,18.27
2018-11-13T11:47:39.789Z,10.03
2018-11-13T11:50:09.176Z,11.90
2018-11-13T11:52:38.014Z,12.00
2018-11-13T11:55:06.720Z,15.17
2018-11-13T11:57:35.295Z,12.60
2018-11-13T12:00:04.700Z,14.53
2018-11-13T12:02:33.212Z,9.87
2018-11-13T12:05:01.718Z,15.37
2018-11-13T12:07:30.208Z,8.80
2018-11-13T12:09:58.588Z,14.03
2018-11-13T12:12:27.035Z,12.87
2018-11-13T12:14:55.579Z,9.40
2018-11-13T12:17:24.536Z,15.57
2018-11-13T12:19:53.035Z,13.67
2018-11-13T12:22:21.481Z,12.67
2018-11-13T12:24:49.867Z,7.13
2018-11-13T12:27:18.258Z,10.23
2018-11-13T12:29:47.028Z,14.27
2018-11-13T12:32:15.833Z,15.93
2018-11-13T12:34:44.636Z,15.43
2018-11-13T12:37:13.403Z,13.60
2018-11-13T12:39:42.093Z,24.20
2018-11-13T12:42:10.727Z,19.40
2018-11-13T12:44:39.241Z,11.57
2018-11-13T12:47:07.652Z,13.70
2018-11-13T12:49:36.120Z,19.47
2018-11-13T12:52:09.909Z,17.13
2018-11-13T12:54:38.994Z,10.37
2018-11-13T12:57:07.386Z,26.57
2018-11-13T12:59:35.816Z,14.07
2018-11-13T13:02:04.940Z,10.60
2018-11-13T13:04:32.955Z,14.20
2018-11-13T13:07:01.332Z,10.33
2018-11-13T13:09:29.769Z,8.87
2018-11-13T13:11:58.748Z,9.50
2018-11-13T13:14:27.569Z,19.00
2018-11-13T13:16:56.046Z,13.00
2018-11-13T13:19:25.160Z,18.23
2018-11-13T13:21:54.163Z,15.03
2018-11-13T13:24:22.550Z,11.93
2018-11-13T13:26:50.997Z,18.70
2018-11-13T13:29:19.644Z,13.23
2018-11-13T13:31:48.109Z,15.00
2018-11-13T13:34:16.741Z,22.50
2018-11-13T13:36:45.198Z,23.53
2018-11-13T13:39:13.606Z,11.17
2018-11-13T13:41:42.232Z,19.57
2018-11-13T13:44:11.361Z,14.43
2018-11-13T13:46:39.970Z,13.37
2018-11-13T13:49:09.024Z,13.97
2018-11-13T13:51:37.467Z,15.17
2018-11-13T13:54:06.083Z,14.60
2018-11-13T13:56:34.376Z,12.93
2018-11-13T13:59:02.988Z,14.77
2018-11-13T14:01:31.859Z,14.40
2018-11-13T14:04:00.272Z,11.40
2018-11-13T14:06:28.689Z,13.40
2018-11-13T14:08:57.340Z,8.90
2018-11-13T14:11:25.911Z,19.63
2018-11-13T14:13:54.365Z,17.57
2018-11-13T14:16:22.709Z,16.90
2018-11-13T14:18:51.106Z,15.20
2018-11-13T14:21:19.509Z,12.93
2018-11-13T14:23:49.287Z,19.47
2018-11-13T14:26:17.889Z,14.23
2018-11-13T14:28:46.288Z,34.53
2018-11-13T14:31:14.638Z,14.03
2018-11-13T14:33:43.071Z,12.83
2018-11-13T14:36:11.611Z,18.63
2018-11-13T14:38:40.002Z,16.57
2018-11-13T14:41:08.457Z,14.97
2018-11-13T14:43:36.871Z,16.57
2018-11-13T14:46:05.657Z,21.47
2018-11-13T14:48:34.025Z,18.57
2018-11-13T14:51:02.425Z,14.67
2018-11-13T14:53:30.872Z,17.57
2018-11-13T14:56:01.979Z,28.00
2018-11-13T14:58:30.473Z,22.70
2018-11-13T15:00:59.935Z,12.87
2018-11-13T15:03:28.376Z,15.77
2018-11-13T15:05:56.841Z,14.57
2018-11-13T15:08:25.240Z,20.20
2018-11-13T15:10:54.616Z,16.13
2018-11-13T15:13:24.321Z,10.80
2018-11-13T15:15:52.823Z,18.47
2018-11-13T15:18:21.290Z,19.87
2018-11-13T15:20:50.585Z,7.60
2018-11-13T15:23:19.020Z,11.60
2018-11-13T15:25:47.444Z,19.97
2018-11-13T15:28:16.011Z,17.73
2018-11-13T15:30:45.845Z,19.50
2018-11-13T15:33:17.885Z,16.80
2018-11-13T15:35:46.282Z,15.37
2018-11-13T15:38:14.856Z,14.77
2018-11-13T15:40:43.234Z,18.20
2018-11-13T15:43:11.627Z,11.40
2018-11-13T15:45:40.238Z,10.50
2018-11-13T15:48:10.437Z,16.60
2018-11-13T15:50:39.337Z,12.37
2018-11-13T15:53:08.570Z,12.03
2018-11-13T15:55:36.933Z,20.23
2018-11-13T15:58:06.215Z,19.73
2018-11-13T16:00:35.879Z,14.93
2018-11-13T16:03:06.738Z,13.40
2018-11-13T16:05:48.203Z,15.33
2018-11-13T16:08:16.652Z,14.27
2018-11-13T16:10:45.306Z,15.40
2018-11-13T16:13:14.956Z,13.87
2018-11-13T16:15:43.825Z,15.67
2018-11-13T16:18:14.822Z,19.50
2018-11-13T16:20:43.251Z,13.43
2018-11-13T16:23:11.638Z,19.67
2018-11-13T16:25:40.232Z,15.83
2018-11-13T16:28:37.210Z,7.30
2018-11-13T16:31:06.623Z,16.07
2018-11-13T16:33:35.893Z,21.47
2018-11-13T16:36:04.369Z,15.63
2018-11-13T16:38:32.818Z,17.63
2018-11-13T16:41:01.288Z,25.20
2018-11-13T16:43:29.668Z,10.00
2018-11-13T16:45:58.037Z,21.17
2018-11-13T16:48:26.417Z,17.63
2018-11-13T16:50:55.541Z,13.87
2018-11-13T16:53:23.940Z,16.67
2018-11-13T16:56:03.780Z,17.40
2018-11-13T16:58:32.232Z,18.57
2018-11-13T17:01:00.640Z,12.03
2018-11-13T17:03:29.460Z,14.47
2018-11-13T17:05:57.895Z,22.87
2018-11-13T17:08:26.246Z,16.17
2018-11-13T17:10:54.616Z,28.17
2018-11-13T17:13:23.045Z,23.80
2018-11-13T17:15:51.458Z,15.60
2018-11-13T17:18:19.861Z,19.33
2018-11-13T17:20:48.216Z,18.87
2018-11-13T17:23:16.913Z,18.20
2018-11-13T17:25:45.312Z,21.60
2018-11-13T17:28:13.693Z,22.17
2018-11-13T17:30:42.063Z,14.90
2018-11-13T17:33:10.742Z,14.20
2018-11-13T17:35:39.174Z,18.37
2018-11-13T17:38:07.668Z,13.40
2018-11-13T17:40:36.834Z,16.53
2018-11-13T17:43:06.482Z,15.53
2018-11-13T17:45:37.174Z,24.77
2018-11-13T17:48:06.822Z,12.87
2018-11-13T17:50:36.438Z,21.33
2018-11-13T17:53:05.806Z,14.87
2018-11-13T17:55:34.446Z,18.77
2018-11-13T17:58:04.897Z,17.50
2018-11-13T18:00:34.684Z,14.80
2018-11-13T18:03:03.643Z,12.90
2018-11-13T18:05:32.408Z,14.03
2018-11-13T18:08:01.651Z,13.83
2018-11-13T18:10:30.926Z,13.40
2018-11-13T18:12:59.637Z,15.67
2018-11-13T18:15:28.890Z,11.50
2018-11-13T18:17:57.595Z,14.17
2018-11-13T18:20:29.628Z,16.10
2018-11-13T18:22:58.026Z,10.20
2018-11-13T18:25:26.561Z,17.50
2018-11-13T18:27:56.084Z,11.70
2018-11-13T18:30:25.606Z,11.70
2018-11-13T18:32:54.690Z,16.63
2018-11-13T18:35:25.316Z,16.60
2018-11-13T18:37:54.832Z,18.60
2018-11-13T18:40:23.765Z,13.70
2018-11-13T18:42:53.054Z,20.13
2018-11-13T18:45:23.962Z,15.37
2018-11-13T18:47:52.302Z,10.50
2018-11-13T18:50:23.932Z,25.27
2018-11-13T18:52:52.338Z,20.00
2018-11-13T18:55:20.745Z,15.33
2018-11-13T18:57:49.214Z,20.20
2018-11-13T19:00:20.907Z,14.17
2018-11-13T19:02:49.793Z,12.73
2018-11-13T19:05:18.403Z,18.23
2018-11-13T19:07:46.802Z,24.47
2018-11-13T19:10:51.774Z,19.03
2018-11-13T19:13:23.782Z,13.87
2018-11-13T19:15:53.897Z,12.93
2018-11-13T19:18:22.685Z,14.73
2018-11-13T19:20:51.301Z,17.10
2018-11-13T19:23:20.656Z,11.93
2018-11-13T19:25:49.316Z,10.40
2018-11-13T19:28:18.066Z,14.83
2018-11-13T19:30:46.602Z,9.50
2018-11-13T19:33:15.035Z,10.83
2018-11-13T19:35:44.907Z,14.60
2018-11-13T19:38:13.186Z,10.63
2018-11-13T19:40:41.593Z,18.93
2018-11-13T19:43:11.005Z,16.13
2018-11-13T19:45:39.821Z,12.07
2018-11-13T19:48:08.509Z,17.23
2018-11-13T19:50:37.500Z,8.30
2018-11-13T19:53:05.986Z,16.43
2018-11-13T19:55:34.872Z,17.20
2018-11-13T19:58:03.267Z,16.93
2018-11-13T20:00:33.963Z,15.27
2018-11-13T20:03:03.703Z,15.73
2018-11-13T20:05:32.584Z,12.93
2018-11-13T20:08:01.257Z,10.87
2018-11-13T20:10:30.904Z,10.13
2018-11-13T20:13:00.697Z,13.40
2018-11-13T20:15:29.693Z,15.00
2018-11-13T20:17:58.751Z,12.43
2018-11-13T20:20:28.440Z,10.37
2018-11-13T20:22:58.491Z,12.97
2018-11-13T20:25:28.269Z,8.13
2018-11-13T20:27:56.889Z,14.20
2018-11-13T20:30:28.620Z,14.67
2018-11-13T20:32:57.998Z,12.73
2018-11-13T20:35:26.425Z,17.30
2018-11-13T20:37:55.736Z,14.67
2018-11-13T20:40:26.457Z,15.53
2018-11-13T20:42:55.998Z,16.47
2018-11-13T20:45:24.555Z,8.67
2018-11-13T20:47:52.975Z,17.63
2018-11-13T20:50:23.647Z,15.03
2018-11-13T20:52:52.113Z,18.90
2018-11-13T20:55:20.481Z,12.87
2018-11-13T20:57:49.166Z,17.83
2018-11-13T21:00:19.430Z,20.13
2018-11-13T21:02:48.523Z,19.23
2018-11-13T21:05:17.051Z,13.10
2018-11-13T21:07:45.726Z,22.93
2018-11-13T21:10:18.091Z,14.93
2018-11-13T21:12:46.821Z,12.87
2018-11-13T21:15:16.836Z,17.83
2018-11-13T21:17:45.266Z,11.00
2018-11-13T21:20:15.055Z,17.53
2018-11-13T21:22:43.442Z,20.80
2018-11-13T21:25:27.039Z,20.43
2018-11-13T21:27:57.529Z,19.43
2018-11-13T21:30:26.060Z,20.40
2018-11-13T21:32:54.696Z,12.73
2018-11-13T21:35:23.165Z,12.57
2018-11-13T21:37:52.850Z,12.77
2018-11-13T21:40:23.371Z,13.00
2018-11-13T21:42:52.423Z,14.77
2018-11-13T21:45:21.753Z,18.47
2018-11-13T21:47:52.962Z,12.73
2018-11-13T21:50:22.771Z,11.33
2018-11-13T21:52:51.096Z,19.17
2018-11-13T21:55:22.424Z,18.40
2018-11-13T21:57:50.784Z,30.07
2018-11-13T22:00:22.162Z,17.70
2018-11-13T22:02:53.350Z,11.77
2018-11-13T22:05:22.622Z,17.00
2018-11-13T22:07:51.241Z,26.60
2018-11-13T22:10:20.350Z,22.80
2018-11-13T22:12:48.996Z,12.03
2018-11-13T22:15:18.977Z,22.07
2018-11-13T22:17:47.380Z,25.47
2018-11-13T22:20:16.817Z,20.23
2018-11-13T22:22:45.373Z,22.90
2018-11-13T22:25:16.329Z,15.13
2018-11-13T22:27:45.828Z,18.07
2018-11-13T22:30:16.520Z,17.67
2018-11-13T22:32:45.944Z,15.50
2018-11-13T22:35:15.641Z,18.67
2018-11-13T22:37:44.160Z,20.40
2018-11-13T22:40:14.995Z,18.33
2018-11-13T22:42:43.385Z,17.27
2018-11-13T22:45:14.071Z,21.33
2018-11-13T22:47:42.622Z,27.37
2018-11-13T22:50:16.871Z,22.70
2018-11-13T22:52:45.755Z,19.80
2018-11-13T22:55:14.864Z,20.57
2018-11-13T22:57:44.341Z,25.23
2018-11-13T23:00:20.978Z,21.93
2018-11-13T23:02:50.769Z,25.55
2018-11-13T23:05:19.638Z,27.97
2018-11-13T23:07:48.116Z,22.40
2018-11-13T23:10:17.096Z,24.97
2018-11-13T23:12:45.818Z,28.47
2018-11-13T23:15:18.438Z,17.60
2018-11-13T23:17:46.978Z,28.53
2018-11-13T23:20:16.755Z,15.50
2018-11-13T23:22:45.264Z,18.40
2018-11-13T23:25:15.024Z,18.00
2018-11-13T23:27:44.351Z,25.45
2018-11-13T23:30:16.164Z,23.70
2018-11-13T23:32:44.893Z,22.63
2018-11-13T23:35:13.820Z,17.97
2018-11-13T23:37:43.274Z,17.67
2018-11-13T23:40:14.341Z,24.97
2018-11-13T23:42:42.870Z,20.87
2018-11-13T23:45:12.057Z,21.70
2018-11-13T23:47:40.807Z,15.33
2018-11-13T23:50:09.762Z,14.63
2018-11-13T23:52:38.390Z,22.63
2018-11-13T23:55:08.193Z,15.97
2018-11-13T23:57:36.580Z,27.50
